Time;durP1;ratioP1;P1;durP2;ratioP2;P2;SDS_P1;SDS_P2;PMS_P1;PMS_P2;Temp;Humidity;BMP_temperature;BMP_pressure;BME280_temperature;BME280_humidity;BME280_pressure;Samples;Min_cycle;Max_cycle;Signal;HPM_P1;HPM_P2
2023/03/02 00:01:08;;;;;;;202.03;77.13;;;;;;;1.13;99.35;101734.70;5125516;56;1140754;-82
2023/03/02 00:06:14;;;;;;;193.02;76.00;;;;;;;1.14;99.60;101740.33;5145685;56;1141129;-86
2023/03/02 00:11:20;;;;;;;196.50;75.00;;;;;;;1.14;99.48;101739.88;5049909;56;1141016;-80
2023/03/02 00:16:26;;;;;;;188.75;75.87;;;;;;;1.14;99.17;101732.06;5031031;57;1140992;-77
2023/03/02 00:21:32;;;;;;;219.60;81.57;;;;;;;1.13;99.17;101731.65;5052781;57;1140833;-82
2023/03/02 00:26:38;;;;;;;180.50;75.33;;;;;;;1.10;99.03;101728.23;5037627;56;1140928;-83
2023/03/02 00:31:43;;;;;;;203.77;81.83;;;;;;;1.10;99.34;101729.53;5037625;57;1140806;-79
2023/03/02 00:36:49;;;;;;;225.93;90.57;;;;;;;1.04;98.99;101727.92;5057009;57;1140839;-86
2023/03/02 00:41:55;;;;;;;212.90;87.23;;;;;;;0.96;98.80;101729.36;5041880;57;1140814;-77
2023/03/02 00:47:01;;;;;;;237.70;89.93;;;;;;;0.82;98.38;101720.09;5041795;57;1140881;-84
2023/03/02 00:52:08;;;;;;;213.50;81.97;;;;;;;0.73;98.80;101716.36;5027374;57;1140902;-81
2023/03/02 00:57:14;;;;;;;216.53;81.57;;;;;;;0.71;99.24;101722.89;4955633;58;1148639;-82
2023/03/02 01:02:20;;;;;;;194.90;77.70;;;;;;;0.68;99.11;101713.39;5042291;57;1140957;-80
2023/03/02 01:07:27;;;;;;;210.87;78.23;;;;;;;0.60;98.96;101710.52;4946662;58;1141082;-81
2023/03/02 01:12:34;;;;;;;200.07;81.97;;;;;;;0.63;99.93;101707.83;4979451;58;1140938;-77
2023/03/02 01:17:41;;;;;;;189.00;72.20;;;;;;;0.59;99.51;101704.89;4960070;58;1140915;-76
2023/03/02 01:22:47;;;;;;;170.37;68.00;;;;;;;0.57;99.85;101701.45;4960216;57;1140919;-85
2023/03/02 01:27:53;;;;;;;175.50;67.60;;;;;;;0.57;99.91;101702.31;4979639;58;1140717;-83
2023/03/02 01:32:59;;;;;;;161.03;64.30;;;;;;;0.56;99.86;101704.94;4960029;58;1140846;-77
2023/03/02 01:38:04;;;;;;;149.33;57.07;;;;;;;0.50;99.49;101698.08;4960294;58;1140797;-85
2023/03/02 01:43:15;;;;;;;86.98;34.84;;;;;;;0.42;99.24;101701.27;5021958;57;1140803;-76
2023/03/02 01:48:29;;;;;;;88.50;34.47;;;;;;;0.32;99.44;101700.55;5037892;57;1138687;-77
2023/03/02 01:53:37;;;;;;;96.20;38.30;;;;;;;0.19;99.86;101697.73;4960368;57;1140469;-79
2023/03/02 01:58:44;;;;;;;97.80;38.20;;;;;;;0.08;99.59;101690.55;5061917;57;1138862;-80
2023/03/02 02:03:51;;;;;;;103.60;40.20;;;;;;;-0.01;100.00;101679.86;4955644;58;1138850;-78
2023/03/02 02:08:59;;;;;;;92.00;36.38;;;;;;;0.08;100.00;101681.45;5006418;57;1144959;-81
2023/03/02 02:14:05;;;;;;;108.60;44.13;;;;;;;0.06;100.00;101675.84;4979525;58;1140851;-85
2023/03/02 02:19:47;;;;;;;136.20;50.35;;;;;;;-0.04;100.00;101673.84;4951661;57;1143443;-81
2023/03/02 02:24:57;;;;;;;127.57;52.83;;;;;;;-0.01;100.00;101672.06;5028897;56;1145452;-74
2023/03/02 02:30:07;;;;;;;152.00;61.17;;;;;;;0.17;100.00;101666.12;5040178;57;1145235;-76
2023/03/02 02:35:26;;;;;;;129.03;54.60;;;;;;;0.19;100.00;101666.52;5093219;56;1142997;-82
2023/03/02 02:40:53;;;;;;;121.63;51.97;;;;;;;0.25;100.00;101671.63;5062707;56;1142884;-74
2023/03/02 02:46:02;;;;;;;104.60;39.43;;;;;;;0.23;100.00;101668.19;5126025;56;1142834;-81
2023/03/02 02:51:10;;;;;;;90.30;36.10;;;;;;;0.22;100.00;101666.47;5060496;57;1142957;-78
2023/03/02 02:56:17;;;;;;;85.37;34.20;;;;;;;0.25;100.00;101659.92;5091398;56;1149070;-81
2023/03/02 03:01:25;;;;;;;71.20;27.62;;;;;;;0.27;100.00;101660.77;5125626;56;1140848;-78
2023/03/02 03:06:41;;;;;;;62.60;28.73;;;;;;;0.33;100.00;101659.34;5121977;56;1141059;-83
2023/03/02 03:11:50;;;;;;;59.53;27.73;;;;;;;0.42;100.00;101661.38;4981914;56;1140948;-75
2023/03/02 03:16:56;;;;;;;56.60;21.30;;;;;;;0.52;100.00;101655.11;5037153;57;1140889;-81
2023/03/02 03:22:03;;;;;;;41.80;18.57;;;;;;;0.46;100.00;101657.37;5041454;57;1140894;-81
2023/03/02 03:27:14;;;;;;;32.30;15.70;;;;;;;0.36;100.00;101654.53;5146002;56;1140840;-86
2023/03/02 03:32:21;;;;;;;35.85;12.45;;;;;;;0.30;100.00;101656.81;5125905;56;1140867;-85
2023/03/02 03:37:29;;;;;;;27.85;13.90;;;;;;;0.27;100.00;101654.70;5125952;56;1140866;-78
2023/03/02 03:42:37;;;;;;;29.43;13.00;;;;;;;0.21;100.00;101654.34;5142279;56;1140750;-78
2023/03/02 03:47:42;;;;;;;26.67;11.67;;;;;;;0.20;100.00;101661.73;5126015;56;1140873;-78
2023/03/02 03:52:49;;;;;;;32.10;15.07;;;;;;;0.19;100.00;101661.31;5125868;56;1140791;-77
2023/03/02 03:57:56;;;;;;;33.37;16.70;;;;;;;0.18;100.00;101663.94;5145557;56;1141054;-74
2023/03/02 04:03:02;;;;;;;28.33;14.63;;;;;;;0.24;100.00;101662.11;5125857;56;1140913;-80
2023/03/02 04:08:10;;;;;;;30.43;14.43;;;;;;;0.32;100.00;101673.23;5103517;56;1140859;-81
2023/03/02 04:13:18;;;;;;;47.33;15.13;;;;;;;0.32;100.00;101671.92;5053683;57;1140879;-80
2023/03/02 04:18:24;;;;;;;35.00;14.90;;;;;;;0.37;100.00;101670.56;5003924;57;1140722;-75
2023/03/02 04:23:30;;;;;;;58.37;16.00;;;;;;;0.49;100.00;101670.78;5035257;57;1141064;-79
2023/03/02 04:28:36;;;;;;;34.20;13.75;;;;;;;0.55;100.00;101674.59;5109672;56;1141107;-79
2023/03/02 04:33:43;;;;;;;27.10;13.27;;;;;;;0.58;100.00;101673.23;4996684;56;1141069;-79
2023/03/02 04:38:50;;;;;;;36.70;13.93;;;;;;;0.56;100.00;101668.05;5125011;56;1141025;-79
2023/03/02 04:43:56;;;;;;;28.93;14.07;;;;;;;0.59;100.00;101663.24;5124893;56;1140818;-79
2023/03/02 04:49:03;;;;;;;38.77;13.40;;;;;;;0.59;100.00;101663.24;5145085;56;1140826;-81
2023/03/02 04:54:21;;;;;;;35.50;15.37;;;;;;;0.55;100.00;101661.13;5125094;55;1140967;-75
2023/03/02 04:59:29;;;;;;;34.78;14.65;;;;;;;0.55;100.00;101666.78;5124963;55;1140714;-82
2023/03/02 05:04:35;;;;;;;29.57;13.90;;;;;;;0.57;100.00;101664.56;5125147;56;1140849;-80
2023/03/02 05:09:41;;;;;;;24.70;12.40;;;;;;;0.58;100.00;101670.19;5051369;56;1140832;-78
2023/03/02 05:14:47;;;;;;;30.83;13.43;;;;;;;0.57;100.00;101671.52;4958329;57;1140919;-79
2023/03/02 05:19:53;;;;;;;35.90;15.00;;;;;;;0.55;100.00;101671.55;4990285;57;1141051;-78
2023/03/02 05:24:59;;;;;;;42.47;16.77;;;;;;;0.64;100.00;101671.80;5055601;56;1140862;-79
2023/03/02 05:30:07;;;;;;;27.57;12.93;;;;;;;0.72;100.00;101671.23;5110383;56;1140778;-78
2023/03/02 05:35:14;;;;;;;27.90;13.37;;;;;;;0.81;100.00;101673.66;5112407;56;1140757;-78
2023/03/02 05:40:21;;;;;;;30.32;12.88;;;;;;;0.87;100.00;101672.69;5077893;57;1140862;-81
2023/03/02 05:45:31;;;;;;;23.05;12.03;;;;;;;0.90;100.00;101670.89;4966167;58;1141035;-74
2023/03/02 05:50:38;;;;;;;22.47;11.40;;;;;;;0.92;100.00;101673.44;5028235;56;1141143;-81
2023/03/02 05:55:45;;;;;;;20.90;11.07;;;;;;;0.89;100.00;101674.38;5028397;56;1140834;-78
2023/03/02 06:00:50;;;;;;;23.07;10.50;;;;;;;0.87;100.00;101678.76;5048288;56;1140796;-83
2023/03/02 06:05:56;;;;;;;24.17;11.50;;;;;;;0.86;100.00;101680.09;5028004;57;1140795;-80
2023/03/02 06:11:02;;;;;;;14.87;7.63;;;;;;;0.83;100.00;101677.53;5027691;57;1140759;-83
2023/03/02 06:16:08;;;;;;;29.27;12.30;;;;;;;0.88;100.00;101684.83;5047826;57;1138958;-78
2023/03/02 06:21:14;;;;;;;23.03;10.93;;;;;;;0.81;100.00;101685.81;5028180;56;1140803;-80
2023/03/02 06:26:19;;;;;;;22.30;10.28;;;;;;;0.82;100.00;101696.20;5026893;56;1140939;-80
2023/03/02 06:31:25;;;;;;;24.32;11.20;;;;;;;0.80;100.00;101696.67;5032363;56;1140970;-76
2023/03/02 06:36:31;;;;;;;26.03;11.60;;;;;;;0.83;100.00;101704.87;5053092;56;1141340;-81
2023/03/02 06:41:36;;;;;;;22.60;11.47;;;;;;;0.88;100.00;101703.91;5016955;56;1140916;-81
2023/03/02 06:46:43;;;;;;;25.60;11.10;;;;;;;0.96;100.00;101711.57;5017122;57;1141101;-77
2023/03/02 06:51:49;;;;;;;28.75;12.65;;;;;;;0.98;100.00;101700.69;5036931;57;1140940;-78
2023/03/02 06:56:56;;;;;;;28.50;11.90;;;;;;;1.03;100.00;101703.63;5017482;55;1141047;-81
2023/03/02 07:02:02;;;;;;;24.07;12.73;;;;;;;1.08;100.00;101716.54;5022150;57;1141039;-77
2023/03/02 07:07:09;;;;;;;27.43;12.60;;;;;;;1.05;100.00;101722.70;5054218;56;1140843;-81
2023/03/02 07:12:15;;;;;;;34.20;13.20;;;;;;;1.03;100.00;101721.86;5045367;56;1140916;-79
2023/03/02 07:17:20;;;;;;;25.93;12.43;;;;;;;1.02;100.00;101724.48;5044411;56;1140821;-78
2023/03/02 07:22:26;;;;;;;44.25;19.87;;;;;;;1.10;100.00;101717.81;5028480;56;1140850;-78
2023/03/02 07:27:32;;;;;;;33.33;17.67;;;;;;;1.17;100.00;101717.68;5053583;56;1140798;-77
2023/03/02 07:32:38;;;;;;;33.30;14.80;;;;;;;1.16;100.00;101719.01;5057964;56;1140911;-76
2023/03/02 07:37:45;;;;;;;33.90;15.55;;;;;;;1.14;100.00;101712.52;5068533;56;1154848;-80
2023/03/02 07:42:51;;;;;;;43.40;17.98;;;;;;;1.18;100.00;101711.58;4935362;58;1159188;-84
2023/03/02 07:47:56;;;;;;;50.17;17.23;;;;;;;1.29;100.00;101707.00;5072886;56;1186245;-79
2023/03/02 07:53:02;;;;;;;30.80;13.27;;;;;;;1.34;100.00;101713.44;5069632;56;1177601;-75
2023/03/02 07:58:08;;;;;;;35.00;14.73;;;;;;;1.36;100.00;101714.27;5086935;56;1140860;-81
2023/03/02 08:03:14;;;;;;;52.83;22.40;;;;;;;1.38;100.00;101709.86;5061825;56;1140840;-82
2023/03/02 08:08:20;;;;;;;50.63;18.52;;;;;;;1.38;100.00;101712.02;4915662;58;1150008;-78
2023/03/02 08:13:26;;;;;;;37.05;13.18;;;;;;;1.41;100.00;101704.58;5065763;56;1140904;-77
2023/03/02 08:18:33;;;;;;;25.12;12.03;;;;;;;1.41;100.00;101704.14;5129317;56;1140944;-79
2023/03/02 08:23:39;;;;;;;20.10;9.73;;;;;;;1.43;100.00;101697.59;5117290;56;1140779;-80
2023/03/02 08:28:45;;;;;;;17.83;8.50;;;;;;;1.38;100.00;101689.86;5117441;56;1138628;-77
2023/03/02 08:33:51;;;;;;;21.30;10.85;;;;;;;1.39;100.00;101687.67;5098199;56;1138826;-79
2023/03/02 08:38:57;;;;;;;18.87;9.13;;;;;;;1.48;100.00;101680.12;5125007;56;1140936;-83
2023/03/02 08:44:03;;;;;;;25.70;11.37;;;;;;;1.54;100.00;101672.14;5121654;56;1138777;-78
2023/03/02 08:49:08;;;;;;;21.37;10.27;;;;;;;1.54;100.00;101674.75;5143570;56;1248367;-74
2023/03/02 08:54:15;;;;;;;17.97;9.20;;;;;;;1.52;100.00;101675.70;5123106;56;1245790;-79
2023/03/02 08:59:21;;;;;;;20.60;9.77;;;;;;;1.54;100.00;101678.66;5015418;56;1237178;-80
2023/03/02 09:04:27;;;;;;;22.00;10.03;;;;;;;1.53;100.00;101674.34;4957532;58;1138923;-76
2023/03/02 09:09:34;;;;;;;19.60;9.30;;;;;;;1.52;100.00;101669.19;5100736;56;1140795;-82
2023/03/02 09:14:40;;;;;;;25.03;10.60;;;;;;;1.57;100.00;101658.19;5022171;56;1253242;-78
2023/03/02 09:19:46;;;;;;;28.77;12.43;;;;;;;1.61;100.00;101650.27;5103909;56;1141552;-80
2023/03/02 09:24:52;;;;;;;24.43;12.37;;;;;;;1.62;100.00;101649.38;5060151;56;1140836;-78
2023/03/02 09:29:58;;;;;;;27.90;12.10;;;;;;;1.61;100.00;101645.05;5038033;57;1234683;-69
2023/03/02 09:35:04;;;;;;;31.60;13.90;;;;;;;1.65;100.00;101645.41;5066864;56;1198164;-82
2023/03/02 09:40:16;;;;;;;30.27;13.93;;;;;;;1.70;100.00;101646.14;5144503;56;1140922;-73
2023/03/02 09:45:24;;;;;;;;;;;;;;;1.77;100.00;101645.56;5128346;56;1140840;-76
2023/03/02 09:50:37;;;;;;;21.97;9.97;;;;;;;1.76;100.00;101651.22;5144810;56;974577;-76
2023/03/02 09:55:44;;;;;;;;;;;;;;;1.74;100.00;101662.13;5168333;56;1136761;-74
2023/03/02 10:00:51;;;;;;;19.60;9.00;;;;;;;1.74;100.00;101654.31;5143410;56;1026735;-72
2023/03/02 10:05:58;;;;;;;16.80;9.08;;;;;;;1.80;100.00;101649.41;5122844;56;1255689;-75
2023/03/02 10:11:48;;;;;;;18.27;9.50;;;;;;;1.88;100.00;101653.13;5144840;56;1138867;-73
2023/03/02 10:17:04;;;;;;;21.47;10.63;;;;;;;1.85;100.00;101649.28;4866387;59;1139029;-80
2023/03/02 10:22:14;;;;;;;23.07;11.33;;;;;;;1.85;100.00;101646.23;4876125;58;1141212;-73
2023/03/02 10:27:38;;;;;;;23.83;11.57;;;;;;;1.90;100.00;101653.95;4932549;58;1141117;-75
2023/03/02 10:32:52;;;;;;;27.60;12.37;;;;;;;1.94;100.00;101656.91;4916683;57;1140912;-77
2023/03/02 10:38:13;;;;;;;332.90;122.43;;;;;;;1.99;100.00;101652.41;4914521;58;1140949;-79
2023/03/02 10:43:31;;;;;;;33.50;17.00;;;;;;;2.00;100.00;101645.86;4910536;58;1145084;-76
2023/03/02 10:49:00;;;;;;;20.37;10.57;;;;;;;2.05;100.00;101641.39;4914492;58;1205622;-82
2023/03/02 10:54:15;;;;;;;29.43;12.60;;;;;;;2.13;100.00;101642.98;5030667;57;1140893;-76
2023/03/02 10:59:45;;;;;;;29.30;10.90;;;;;;;2.03;100.00;101641.02;5124196;55;1188320;-78
2023/03/02 11:05:01;;;;;;;32.60;14.80;;;;;;;1.91;100.00;101629.14;5131161;55;1254516;-78
2023/03/02 11:10:19;;;;;;;24.23;12.43;;;;;;;1.82;100.00;101633.28;5131633;56;1140917;-81
2023/03/02 11:15:38;;;;;;;30.47;14.23;;;;;;;1.90;100.00;101625.26;5040371;56;1142815;-73
2023/03/02 11:20:48;;;;;;;27.37;13.37;;;;;;;2.00;100.00;101625.44;5091786;56;1141071;-73
2023/03/02 11:26:20;;;;;;;28.10;12.80;;;;;;;2.06;100.00;101622.69;5144652;55;1140920;-80
2023/03/02 11:31:47;;;;;;;34.87;16.20;;;;;;;2.06;100.00;101619.63;5102936;56;1150345;-74
2023/03/02 11:37:20;;;;;;;32.53;13.37;;;;;;;2.03;100.00;101621.45;5038768;57;1141027;-77
2023/03/02 11:42:33;;;;;;;27.82;13.28;;;;;;;2.03;100.00;101621.00;5029047;57;1141042;-75
2023/03/02 11:47:41;;;;;;;32.48;15.85;;;;;;;2.11;100.00;101610.39;5047944;57;1140964;-76
2023/03/02 11:52:58;;;;;;;30.90;14.27;;;;;;;2.16;100.00;101608.50;5028519;57;1140847;-72
2023/03/02 11:58:05;;;;;;;31.87;13.73;;;;;;;2.16;100.00;101605.89;5028680;56;1140897;-75
2023/03/02 12:03:18;;;;;;;34.23;15.03;;;;;;;2.09;100.00;101603.91;5047986;56;1140845;-79
2023/03/02 12:08:29;;;;;;;41.58;19.70;;;;;;;2.05;100.00;101600.09;4995023;57;1140943;-79
2023/03/02 12:13:41;;;;;;;31.07;16.00;;;;;;;2.07;100.00;101597.86;5025755;56;1141048;-77
2023/03/02 12:18:52;;;;;;;34.10;14.23;;;;;;;2.13;100.00;101590.34;5076071;56;1140902;-78
2023/03/02 12:24:02;;;;;;;26.93;12.73;;;;;;;2.06;100.00;101587.46;5111536;56;1140885;-78
2023/03/02 12:29:13;;;;;;;41.53;16.87;;;;;;;2.14;100.00;101581.58;5018933;56;1140950;-78
2023/03/02 12:34:33;;;;;;;34.27;18.57;;;;;;;2.21;100.00;101579.23;4966169;57;1140931;-75
2023/03/02 12:39:56;;;;;;;32.90;15.48;;;;;;;2.22;100.00;101566.59;5039207;56;1141041;-71
2023/03/02 12:45:45;;;;;;;29.45;13.65;;;;;;;2.22;100.00;101569.20;5118890;56;1141241;-77
2023/03/02 12:51:00;;;;;;;31.23;15.17;;;;;;;2.22;100.00;101556.16;5036042;57;1141169;-82
2023/03/02 12:56:08;;;;;;;34.65;17.05;;;;;;;2.17;100.00;101555.41;5040451;57;1140948;-78
2023/03/02 13:01:19;;;;;;;38.23;16.83;;;;;;;2.02;100.00;101555.81;5055959;57;1140770;-78
2023/03/02 13:06:30;;;;;;;41.87;17.17;;;;;;;1.97;100.00;101542.91;5026861;56;1140886;-76
2023/03/02 13:11:37;;;;;;;161.07;93.33;;;;;;;2.02;100.00;101531.03;4949747;58;1140851;-76
2023/03/02 13:16:45;;;;;;;27.33;15.00;;;;;;;2.02;100.00;101541.02;4973583;58;1142907;-76
2023/03/02 13:21:50;;;;;;;26.10;13.83;;;;;;;1.88;100.00;101531.39;5106150;56;1141017;-76
2023/03/02 13:27:01;;;;;;;30.10;14.37;;;;;;;1.77;100.00;101526.90;5066054;56;1140819;-72
2023/03/02 13:32:19;;;;;;;40.97;15.70;;;;;;;1.66;100.00;101520.66;5004672;57;1141011;-71
2023/03/02 13:37:42;;;;;;;37.67;16.23;;;;;;;1.69;100.00;101517.09;4970283;57;1140849;-74
2023/03/02 13:42:48;;;;;;;33.30;16.10;;;;;;;1.72;100.00;101515.72;5008490;57;1140825;-78
2023/03/02 13:47:56;;;;;;;31.30;14.13;;;;;;;1.71;100.00;101507.03;4973495;57;1141061;-77
2023/03/02 13:53:06;;;;;;;31.07;13.30;;;;;;;1.71;100.00;101495.30;4980907;57;1140853;-79
2023/03/02 13:58:15;;;;;;;36.20;17.98;;;;;;;1.68;100.00;101490.16;4962703;57;1140875;-73
2023/03/02 14:03:28;;;;;;;33.97;16.33;;;;;;;1.63;100.00;101485.98;4990958;57;1140931;-76
2023/03/02 14:08:34;;;;;;;83.00;37.15;;;;;;;1.53;100.00;101471.47;5011131;57;1140877;-78
2023/03/02 14:14:18;;;;;;;41.02;17.02;;;;;;;1.49;100.00;101459.40;5026372;56;1140832;-79
2023/03/02 14:19:25;;;;;;;43.67;20.47;;;;;;;1.55;100.00;101460.08;5020434;57;1140913;-80
2023/03/02 14:24:31;;;;;;;47.05;20.75;;;;;;;1.59;100.00;101460.42;5103881;56;1140936;-81
2023/03/02 14:29:38;;;;;;;43.28;21.30;;;;;;;1.65;100.00;101448.98;4986986;57;1140996;-75
2023/03/02 14:34:44;;;;;;;56.43;23.33;;;;;;;1.73;100.00;101438.75;5031952;57;1140895;-82
2023/03/02 14:39:57;;;;;;;47.80;20.27;;;;;;;1.74;100.00;101428.73;5023684;57;1141013;-81
2023/03/02 14:44:59;;;;;;;47.13;23.17;;;;;;;1.71;100.00;101426.20;5138822;56;1140944;-75
2023/03/02 14:50:05;;;;;;;69.90;28.80;;;;;;;1.69;100.00;101422.77;5112783;56;1140929;-76
2023/03/02 14:55:30;;;;;;;39.40;19.60;;;;;;;1.77;100.00;101422.58;5076664;56;1140769;-85
2023/03/02 15:00:36;;;;;;;40.90;19.80;;;;;;;1.80;100.00;101412.08;5121116;56;1140875;-77
2023/03/02 15:05:43;;;;;;;95.67;43.52;;;;;;;1.83;100.00;101411.14;5114052;56;1140926;-82
2023/03/02 15:10:50;;;;;;;52.30;23.50;;;;;;;1.94;100.00;101405.17;5060896;56;1140883;-79
2023/03/02 15:15:56;;;;;;;43.13;18.93;;;;;;;1.95;100.00;101401.66;5040912;57;1140964;-78
2023/03/02 15:21:02;;;;;;;36.27;17.90;;;;;;;1.81;100.00;101399.45;5099607;56;1140900;-74
2023/03/02 15:26:08;;;;;;;45.60;20.60;;;;;;;1.71;100.00;101397.52;5107158;56;1141146;-81
2023/03/02 15:31:16;;;;;;;45.20;22.17;;;;;;;1.65;100.00;101395.09;5109322;56;1140863;-75
2023/03/02 15:36:22;;;;;;;43.80;22.45;;;;;;;1.57;100.00;101390.52;5096222;56;1140938;-76
2023/03/02 15:41:28;;;;;;;48.10;22.47;;;;;;;1.57;100.00;101390.52;5123062;56;1255457;-82
2023/03/02 15:46:34;;;;;;;34.80;17.53;;;;;;;1.60;100.00;101388.28;5083844;56;1141057;-74
2023/03/02 15:51:40;;;;;;;40.83;16.93;;;;;;;1.62;100.00;101383.44;5038348;57;1141075;-76
2023/03/02 15:56:53;;;;;;;38.40;19.87;;;;;;;1.55;100.00;101382.32;5058205;56;1140878;-68
2023/03/02 16:02:01;;;;;;;37.33;18.60;;;;;;;1.54;100.00;101389.28;5038385;56;1140851;-83
2023/03/02 16:07:06;;;;;;;35.40;18.03;;;;;;;1.49;100.00;101382.05;5037861;57;1140979;-79
2023/03/02 16:12:12;;;;;;;25.77;14.53;;;;;;;1.42;100.00;101387.00;5053976;57;1140868;-80
2023/03/02 16:17:18;;;;;;;54.27;23.00;;;;;;;1.42;100.00;101385.70;4931074;58;1140896;-81
2023/03/02 16:22:24;;;;;;;55.73;23.73;;;;;;;1.43;100.00;101380.90;5040478;56;1140866;-74
2023/03/02 16:27:30;;;;;;;58.52;31.85;;;;;;;1.41;100.00;101378.77;5035547;57;1150367;-78
2023/03/02 16:32:37;;;;;;;299.85;130.65;;;;;;;1.37;100.00;101370.20;5014092;57;1140910;-76
2023/03/02 16:37:43;;;;;;;302.62;125.62;;;;;;;1.36;100.00;101368.94;5026347;56;1145057;-75
2023/03/02 16:42:52;;;;;;;94.60;45.67;;;;;;;1.33;100.00;101367.27;5008777;55;1145093;-77
2023/03/02 16:47:58;;;;;;;79.97;35.27;;;;;;;1.27;100.00;101367.41;5127491;56;1141098;-80
2023/03/02 16:53:04;;;;;;;98.40;44.10;;;;;;;1.20;100.00;101371.09;5146145;55;1140918;-74
2023/03/02 16:58:10;;;;;;;88.50;40.57;;;;;;;1.20;100.00;101371.53;5121885;56;1140911;-79
2023/03/02 17:03:17;;;;;;;67.53;35.63;;;;;;;1.18;100.00;101368.10;5141950;56;1140834;-75
2023/03/02 17:08:23;;;;;;;48.20;22.33;;;;;;;1.14;100.00;101371.23;5121785;56;1140832;-82
2023/03/02 17:13:29;;;;;;;43.43;21.23;;;;;;;1.02;100.00;101379.35;5101978;56;1140854;-76
2023/03/02 17:18:35;;;;;;;65.17;35.83;;;;;;;0.94;100.00;101377.36;5140418;56;1140927;-76
2023/03/02 17:23:42;;;;;;;34.03;16.87;;;;;;;0.90;100.00;101379.21;5069478;56;1140939;-76
2023/03/02 17:28:48;;;;;;;32.03;15.40;;;;;;;0.84;100.00;101377.19;5099792;56;1141229;-75
2023/03/02 17:33:55;;;;;;;29.87;15.73;;;;;;;0.75;100.00;101383.48;5109204;56;1140999;-74
2023/03/02 17:39:01;;;;;;;41.47;19.83;;;;;;;0.71;100.00;101383.13;5100326;55;1140942;-79
2023/03/02 17:44:06;;;;;;;46.93;22.80;;;;;;;0.61;100.00;101381.64;5100690;56;1140955;-78
2023/03/02 17:49:13;;;;;;;596.63;169.83;;;;;;;0.61;100.00;101381.64;5114779;55;1141064;-80
2023/03/02 17:54:18;;;;;;;110.27;35.57;;;;;;;0.59;100.00;101390.78;5091517;56;1145094;-78
2023/03/02 17:59:24;;;;;;;47.53;18.37;;;;;;;0.53;100.00;101386.15;5130037;56;1143151;-79
2023/03/02 18:04:30;;;;;;;40.83;18.90;;;;;;;0.49;100.00;101382.75;5110544;56;1140844;-75
2023/03/02 18:09:36;;;;;;;35.70;18.30;;;;;;;0.45;100.00;101379.83;5150760;56;1141001;-74
2023/03/02 18:14:45;;;;;;;32.08;17.30;;;;;;;0.35;100.00;101379.16;5120696;56;1141273;-80
2023/03/02 18:19:51;;;;;;;37.97;18.83;;;;;;;0.33;100.00;101374.88;5043336;56;1140931;-78
2023/03/02 18:24:56;;;;;;;44.43;17.50;;;;;;;0.33;100.00;101369.67;5089138;56;1140996;-76
2023/03/02 18:30:02;;;;;;;32.50;15.33;;;;;;;0.21;100.00;101362.14;5106795;56;1140942;-79
2023/03/02 18:35:08;;;;;;;34.90;16.67;;;;;;;0.21;100.00;101362.14;5023476;56;1140991;-75
2023/03/02 18:40:15;;;;;;;40.23;19.57;;;;;;;0.15;100.00;101358.39;5053825;57;1140801;-79
2023/03/02 18:45:30;;;;;;;88.83;34.13;;;;;;;0.13;100.00;101364.06;5044116;56;1140912;-78
2023/03/02 18:50:36;;;;;;;47.95;20.00;;;;;;;0.12;100.00;101364.95;5025923;56;1141108;-77
2023/03/02 18:55:42;;;;;;;119.65;43.68;;;;;;;0.12;100.00;101371.01;5136755;55;1140778;-79
2023/03/02 19:00:49;;;;;;;43.50;20.53;;;;;;;0.10;100.00;101377.98;5129356;56;1143066;-74
2023/03/02 19:05:55;;;;;;;40.87;19.67;;;;;;;0.14;100.00;101368.38;5123288;55;1140782;-74
2023/03/02 19:11:01;;;;;;;35.37;17.33;;;;;;;0.07;100.00;101373.28;5150703;55;1140932;-73
2023/03/02 19:16:08;;;;;;;39.95;20.65;;;;;;;-0.06;100.00;101367.03;5147359;55;1140739;-77
2023/03/02 19:21:14;;;;;;;44.03;21.87;;;;;;;-0.17;100.00;101371.60;5165782;55;1142820;-77
2023/03/02 19:26:19;;;;;;;37.80;20.33;;;;;;;-0.19;100.00;101382.91;5198631;55;1142997;-80
2023/03/02 19:31:26;;;;;;;42.93;22.77;;;;;;;-0.19;100.00;101387.67;5158788;55;1143159;-77
2023/03/02 19:36:32;;;;;;;46.63;21.07;;;;;;;-0.21;100.00;101385.54;5101665;55;1142980;-75
2023/03/02 19:41:38;;;;;;;52.60;24.57;;;;;;;-0.27;100.00;101383.48;5066977;56;1142818;-78
2023/03/02 19:46:44;;;;;;;44.57;23.37;;;;;;;-0.28;100.00;101380.03;5111877;55;1143279;-75
2023/03/02 19:51:49;;;;;;;122.87;89.70;;;;;;;-0.18;100.00;101378.12;5199525;55;1142840;-77
2023/03/02 19:56:55;;;;;;;51.17;23.03;;;;;;;-0.16;100.00;101373.77;5086433;55;1145019;-76
2023/03/02 20:02:02;;;;;;;50.63;24.80;;;;;;;-0.24;100.00;101369.14;5083078;55;1143065;-77
2023/03/02 20:07:07;;;;;;;39.57;21.63;;;;;;;-0.33;100.00;101370.63;5074065;55;1143058;-76
2023/03/02 20:12:14;;;;;;;39.57;18.93;;;;;;;-0.39;100.00;101367.25;5087738;56;1143005;-72
2023/03/02 20:17:20;;;;;;;42.00;20.60;;;;;;;-0.45;100.00;101366.50;5033819;56;1143000;-74
2023/03/02 20:22:26;;;;;;;61.37;24.90;;;;;;;-0.43;100.00;101368.19;5002729;56;1142974;-73
2023/03/02 20:27:33;;;;;;;42.73;22.20;;;;;;;-0.40;100.00;101380.27;5046113;55;1143168;-75
2023/03/02 20:32:39;;;;;;;43.25;21.07;;;;;;;-0.40;100.00;101396.72;5163457;55;1143115;-76
2023/03/02 20:37:45;;;;;;;43.00;21.80;;;;;;;-0.45;100.00;101392.48;5203587;55;1142953;-76
2023/03/02 20:42:50;;;;;;;39.77;21.73;;;;;;;-0.51;100.00;101396.07;5204388;55;1142838;-73
2023/03/02 20:47:58;;;;;;;39.43;21.67;;;;;;;-0.59;100.00;101397.08;5224696;55;1143072;-80
2023/03/02 20:53:06;;;;;;;41.57;19.60;;;;;;;-0.64;100.00;101397.18;5204173;55;1142856;-79
2023/03/02 20:58:13;;;;;;;56.67;28.13;;;;;;;-0.67;100.00;101399.83;5213593;55;1142839;-79
2023/03/02 21:03:18;;;;;;;65.47;34.10;;;;;;;-0.73;100.00;101392.13;5237644;55;1142945;-76
2023/03/02 21:08:26;;;;;;;59.63;29.13;;;;;;;-0.78;100.00;101384.88;5216745;55;1142968;-78
2023/03/02 21:13:32;;;;;;;66.26;32.62;;;;;;;-0.75;100.00;101378.30;5133642;55;1143176;-77
2023/03/02 21:18:39;;;;;;;48.77;23.20;;;;;;;-0.77;100.00;101380.09;5113154;55;1142889;-80
2023/03/02 21:23:45;;;;;;;62.03;29.33;;;;;;;-0.80;100.00;101361.52;5067564;56;1143018;-81
2023/03/02 21:28:53;;;;;;;78.83;36.83;;;;;;;-0.86;100.00;101364.21;5135706;55;1142968;-75
2023/03/02 21:33:59;;;;;;;75.20;33.87;;;;;;;-0.88;100.00;101351.70;5145320;55;1143058;-79
2023/03/02 21:39:07;;;;;;;62.73;31.47;;;;;;;-0.86;100.00;101357.72;5082639;55;1143139;-78
2023/03/02 21:44:13;;;;;;;81.07;37.70;;;;;;;-0.90;100.00;101361.25;5135764;55;1143119;-79
2023/03/02 21:49:22;;;;;;;70.57;33.00;;;;;;;-0.87;100.00;101356.45;5139666;56;1142963;-76
2023/03/02 21:54:28;;;;;;;62.53;28.83;;;;;;;-0.87;100.00;101345.63;5119498;56;1143410;-80
2023/03/02 21:59:36;;;;;;;57.27;27.15;;;;;;;-0.86;100.00;101330.89;5119736;56;1143400;-77
2023/03/02 22:04:41;;;;;;;61.80;28.23;;;;;;;-0.87;100.00;101331.34;5140307;56;1143107;-80
2023/03/02 22:09:47;;;;;;;43.07;19.53;;;;;;;-0.90;100.00;101342.21;5119549;56;1143030;-73
2023/03/02 22:14:54;;;;;;;46.97;23.40;;;;;;;-0.99;100.00;101336.75;5126667;56;1143034;-76
2023/03/02 22:20:00;;;;;;;34.90;17.23;;;;;;;-1.05;100.00;101347.22;5158492;55;1142940;-76
2023/03/02 22:25:13;;;;;;;48.65;19.75;;;;;;;-1.04;100.00;101337.70;5130606;55;1142900;-75
2023/03/02 22:30:22;;;;;;;61.70;26.52;;;;;;;-1.10;100.00;101339.98;5096147;55;1142876;-78
2023/03/02 22:35:28;;;;;;;33.75;17.15;;;;;;;-1.08;100.00;101342.11;5089160;56;1143081;-79
2023/03/02 22:40:35;;;;;;;31.02;15.48;;;;;;;-1.03;100.00;101334.22;5141861;56;1142945;-76
2023/03/02 22:45:42;;;;;;;28.13;15.27;;;;;;;-1.09;100.00;101323.08;5118961;56;1150264;-75